createdAt,value
2023-02-14T00:00:58.945Z,21.60
2023-02-14T00:01:58.636Z,22.10
2023-02-14T00:02:58.651Z,24.00
2023-02-14T00:03:58.739Z,25.30
2023-02-14T00:04:58.768Z,22.70
2023-02-14T00:05:58.816Z,23.50
2023-02-14T00:06:58.594Z,24.90
2023-02-14T00:07:58.578Z,20.80
2023-02-14T00:08:58.591Z,23.60
2023-02-14T00:09:58.576Z,24.00
2023-02-14T00:10:58.851Z,20.50
2023-02-14T00:11:58.558Z,22.70
2023-02-14T00:12:58.786Z,23.70
2023-02-14T00:13:58.807Z,22.60
2023-02-14T00:14:58.535Z,20.50
2023-02-14T00:15:58.611Z,21.80
2023-02-14T00:16:58.526Z,23.20
2023-02-14T00:17:58.628Z,22.30
2023-02-14T00:18:58.544Z,21.30
2023-02-14T00:19:58.512Z,21.60
2023-02-14T00:20:58.809Z,23.70
2023-02-14T00:21:58.654Z,21.00
2023-02-14T00:22:58.491Z,20.20
2023-02-14T00:23:58.482Z,22.30
2023-02-14T00:24:58.484Z,18.50
2023-02-14T00:25:58.470Z,22.60
2023-02-14T00:26:58.475Z,22.20
2023-02-14T00:27:58.461Z,20.50
2023-02-14T00:28:58.451Z,20.80
2023-02-14T00:29:58.496Z,19.80
2023-02-14T00:30:58.819Z,21.50
2023-02-14T00:31:58.609Z,23.10
2023-02-14T00:32:58.423Z,20.50
2023-02-14T00:33:58.429Z,20.50
2023-02-14T00:34:58.420Z,20.10
2023-02-14T00:35:58.409Z,20.40
2023-02-14T00:36:58.399Z,22.90
2023-02-14T00:37:58.768Z,20.10
2023-02-14T00:38:58.784Z,20.10
2023-02-14T00:39:58.442Z,21.70
2023-02-14T00:40:59.007Z,20.70
2023-02-14T00:41:58.378Z,19.50
2023-02-14T00:42:58.368Z,19.40
2023-02-14T00:43:59.217Z,21.40
2023-02-14T00:44:58.398Z,19.40
2023-02-14T00:45:58.434Z,18.70
2023-02-14T00:46:58.375Z,19.90
2023-02-14T00:47:58.345Z,18.80
2023-02-14T00:48:58.388Z,19.20
2023-02-14T00:49:58.344Z,22.10
2023-02-14T00:50:58.662Z,20.10
2023-02-14T00:51:58.453Z,21.30
2023-02-14T00:52:58.315Z,21.70
2023-02-14T00:53:58.292Z,19.30
2023-02-14T00:54:58.303Z,21.40
2023-02-14T00:55:58.283Z,19.10
2023-02-14T00:56:58.275Z,16.20
2023-02-14T00:57:58.282Z,18.50
2023-02-14T00:58:58.530Z,20.10
2023-02-14T00:59:58.280Z,19.60
2023-02-14T01:00:58.594Z,20.80
2023-02-14T01:01:58.256Z,18.10
2023-02-14T01:02:58.231Z,20.70
2023-02-14T01:03:59.152Z,21.10
2023-02-14T01:04:58.247Z,18.80
2023-02-14T01:05:58.223Z,20.00
2023-02-14T01:06:58.213Z,23.90
2023-02-14T01:07:58.201Z,20.20
2023-02-14T01:08:58.198Z,19.20
2023-02-14T01:09:58.211Z,20.50
2023-02-14T01:10:58.455Z,20.10
2023-02-14T01:11:58.178Z,20.00
2023-02-14T01:12:58.179Z,18.80
2023-02-14T01:13:58.170Z,17.30
2023-02-14T01:14:58.387Z,20.10
2023-02-14T01:15:58.157Z,19.10
2023-02-14T01:16:58.158Z,17.80
2023-02-14T01:17:58.169Z,17.30
2023-02-14T01:18:58.254Z,18.90
2023-02-14T01:19:58.177Z,18.50
2023-02-14T01:20:58.405Z,20.00
2023-02-14T01:21:58.254Z,21.20
2023-02-14T01:22:58.121Z,20.80
2023-02-14T01:23:58.123Z,17.20
2023-02-14T01:24:58.116Z,26.00
2023-02-14T01:25:58.104Z,18.50
2023-02-14T01:26:58.084Z,16.60
2023-02-14T01:27:58.092Z,23.00
2023-02-14T01:28:58.138Z,20.00
2023-02-14T01:29:58.103Z,19.00
2023-02-14T01:30:59.090Z,19.60
2023-02-14T01:31:58.157Z,21.60
2023-02-14T01:32:58.099Z,20.90
2023-02-14T01:33:58.054Z,18.70
2023-02-14T01:34:58.077Z,20.50
2023-02-14T01:35:58.088Z,18.10
2023-02-14T01:36:58.044Z,17.80
2023-02-14T01:37:58.023Z,19.40
2023-02-14T01:38:58.022Z,20.90
2023-02-14T01:39:58.038Z,18.80
2023-02-14T01:40:58.376Z,17.30
2023-02-14T01:41:58.014Z,19.80
2023-02-14T01:42:58.003Z,22.10
2023-02-14T01:43:57.984Z,19.20
2023-02-14T01:44:58.005Z,19.30
2023-02-14T01:45:58.015Z,19.60
2023-02-14T01:46:58.404Z,18.70
2023-02-14T01:47:57.962Z,16.70
2023-02-14T01:48:57.952Z,18.80
2023-02-14T01:49:57.974Z,17.50
2023-02-14T01:50:58.251Z,18.60
2023-02-14T01:51:57.954Z,20.10
2023-02-14T01:52:57.933Z,19.30
2023-02-14T01:53:57.940Z,16.50
2023-02-14T01:54:57.955Z,18.90
2023-02-14T01:55:57.923Z,18.60
2023-02-14T01:56:57.917Z,18.70
2023-02-14T01:57:57.903Z,18.40
2023-02-14T01:58:57.912Z,18.50
2023-02-14T01:59:57.910Z,17.00
2023-02-14T02:00:59.313Z,17.10
2023-02-14T02:01:58.568Z,16.10
2023-02-14T02:02:57.944Z,15.70
2023-02-14T02:03:58.034Z,18.10
2023-02-14T02:04:57.923Z,15.40
2023-02-14T02:05:57.923Z,16.60
2023-02-14T02:06:57.930Z,16.90
2023-02-14T02:07:57.860Z,15.70
2023-02-14T02:08:57.848Z,16.30
2023-02-14T02:09:57.840Z,14.00
2023-02-14T02:10:58.120Z,17.90
2023-02-14T02:11:57.838Z,13.10
2023-02-14T02:12:57.829Z,16.20
2023-02-14T02:13:57.817Z,14.60
2023-02-14T02:14:57.820Z,15.10
2023-02-14T02:15:58.029Z,16.30
2023-02-14T02:16:57.857Z,15.30
2023-02-14T02:17:57.786Z,13.00
2023-02-14T02:18:57.786Z,13.60
2023-02-14T02:19:57.772Z,13.90
2023-02-14T02:20:58.179Z,16.30
2023-02-14T02:21:57.755Z,15.10
2023-02-14T02:22:57.756Z,17.00
2023-02-14T02:23:57.849Z,13.80
2023-02-14T02:24:57.745Z,16.30
2023-02-14T02:25:57.746Z,13.70
2023-02-14T02:26:57.722Z,15.20
2023-02-14T02:27:57.719Z,13.00
2023-02-14T02:28:57.706Z,13.90
2023-02-14T02:29:57.740Z,15.00
2023-02-14T02:30:58.199Z,13.60
2023-02-14T02:31:57.815Z,16.30
2023-02-14T02:32:57.704Z,14.90
2023-02-14T02:33:57.683Z,14.80
2023-02-14T02:34:57.722Z,14.00
2023-02-14T02:35:57.949Z,15.40
2023-02-14T02:36:57.664Z,13.30
2023-02-14T02:37:57.668Z,14.00
2023-02-14T02:38:57.661Z,13.70
2023-02-14T02:39:57.678Z,14.40
2023-02-14T02:40:57.868Z,15.20
2023-02-14T02:41:57.651Z,14.70
2023-02-14T02:42:57.671Z,13.10
2023-02-14T02:43:57.619Z,15.60
2023-02-14T02:44:57.629Z,16.00
2023-02-14T02:45:57.800Z,13.90
2023-02-14T02:46:57.599Z,15.70
2023-02-14T02:47:57.598Z,13.40
2023-02-14T02:48:57.587Z,14.00
2023-02-14T02:49:57.836Z,13.10
2023-02-14T02:50:58.071Z,14.00
2023-02-14T02:51:57.570Z,15.90
2023-02-14T02:52:57.578Z,12.80
2023-02-14T02:53:57.563Z,11.90
2023-02-14T02:54:57.556Z,12.60
2023-02-14T02:55:57.604Z,12.60
2023-02-14T02:56:57.901Z,12.80
2023-02-14T02:57:57.535Z,13.20
2023-02-14T02:58:58.285Z,14.60
2023-02-14T02:59:58.284Z,11.90
2023-02-14T03:00:58.605Z,12.90
2023-02-14T03:01:58.300Z,14.10
2023-02-14T03:02:57.685Z,12.60
2023-02-14T03:03:58.310Z,12.70
2023-02-14T03:04:58.357Z,12.90
2023-02-14T03:05:57.503Z,11.70
2023-02-14T03:06:57.494Z,12.80
2023-02-14T03:07:57.461Z,12.80
2023-02-14T03:08:57.467Z,10.70
2023-02-14T03:09:57.502Z,12.00
2023-02-14T03:10:57.679Z,11.40
2023-02-14T03:11:57.761Z,12.60
2023-02-14T03:12:57.770Z,11.60
2023-02-14T03:13:57.435Z,10.50
2023-02-14T03:14:57.439Z,12.30
2023-02-14T03:15:57.480Z,12.10
2023-02-14T03:16:57.441Z,12.80
2023-02-14T03:17:57.410Z,9.20
2023-02-14T03:18:57.409Z,10.60
2023-02-14T03:19:57.397Z,10.60
2023-02-14T03:20:57.493Z,10.60
2023-02-14T03:21:57.412Z,13.50
2023-02-14T03:22:57.416Z,10.80
2023-02-14T03:23:57.389Z,11.30
2023-02-14T03:24:57.425Z,10.50
2023-02-14T03:25:57.445Z,11.70
2023-02-14T03:26:57.480Z,10.10
2023-02-14T03:27:57.665Z,10.20
2023-02-14T03:28:57.388Z,10.10
2023-02-14T03:29:57.494Z,10.30
2023-02-14T03:30:57.662Z,10.00
2023-02-14T03:31:57.734Z,9.80
2023-02-14T03:32:57.685Z,9.90
2023-02-14T03:33:57.687Z,9.40
2023-02-14T03:34:57.700Z,10.50
2023-02-14T03:35:57.702Z,11.00
2023-02-14T03:36:57.713Z,9.30
2023-02-14T03:37:57.757Z,9.40
2023-02-14T03:38:57.765Z,11.80
2023-02-14T03:39:57.303Z,9.80
2023-02-14T03:40:57.504Z,8.90
2023-02-14T03:41:57.784Z,10.50
2023-02-14T03:42:57.806Z,10.80
2023-02-14T03:43:57.802Z,8.70
2023-02-14T03:44:57.280Z,9.50
2023-02-14T03:45:57.315Z,10.50
2023-02-14T03:46:57.280Z,11.50
2023-02-14T03:47:57.613Z,11.50
2023-02-14T03:48:58.058Z,9.60
2023-02-14T03:49:57.422Z,8.50
2023-02-14T03:50:58.066Z,10.10
2023-02-14T03:51:57.411Z,11.50
2023-02-14T03:52:58.021Z,9.90
2023-02-14T03:53:58.029Z,9.70
2023-02-14T03:54:57.992Z,9.40
2023-02-14T03:55:58.040Z,9.50
2023-02-14T03:56:58.054Z,10.40
2023-02-14T03:57:57.169Z,8.60
2023-02-14T03:58:58.056Z,9.10
2023-02-14T03:59:57.512Z,9.90
2023-02-14T04:00:58.484Z,9.60
2023-02-14T04:01:58.157Z,8.60
2023-02-14T04:02:57.143Z,9.90
2023-02-14T04:03:57.191Z,9.70
2023-02-14T04:04:57.134Z,8.70
2023-02-14T04:05:57.110Z,8.70
2023-02-14T04:06:57.130Z,9.90
2023-02-14T04:07:57.093Z,9.90
2023-02-14T04:08:57.091Z,9.80
2023-02-14T04:09:57.088Z,8.50
2023-02-14T04:10:57.381Z,9.50
2023-02-14T04:11:57.554Z,9.20
2023-02-14T04:12:57.543Z,8.90
2023-02-14T04:13:57.074Z,9.30
2023-02-14T04:14:57.055Z,8.70
2023-02-14T04:15:57.862Z,10.00
2023-02-14T04:16:57.773Z,9.00
2023-02-14T04:17:57.069Z,8.30
2023-02-14T04:18:57.070Z,8.20
2023-02-14T04:19:57.033Z,7.80
2023-02-14T04:20:57.259Z,8.80
2023-02-14T04:21:57.049Z,9.40
2023-02-14T04:22:58.089Z,9.00
2023-02-14T04:23:57.199Z,9.40
2023-02-14T04:24:57.200Z,10.60
2023-02-14T04:25:57.218Z,9.60
2023-02-14T04:26:57.068Z,9.40
2023-02-14T04:27:56.963Z,9.70
2023-02-14T04:28:57.226Z,8.40
2023-02-14T04:29:57.030Z,9.30
2023-02-14T04:30:57.239Z,10.00
2023-02-14T04:31:57.340Z,7.90
2023-02-14T04:32:57.255Z,9.10
2023-02-14T04:33:56.940Z,8.70
2023-02-14T04:34:57.264Z,9.30
2023-02-14T04:35:57.279Z,8.90
2023-02-14T04:36:57.064Z,8.70
2023-02-14T04:37:56.916Z,8.90
2023-02-14T04:38:56.940Z,8.40
2023-02-14T04:39:56.922Z,10.50
2023-02-14T04:40:57.094Z,9.50
2023-02-14T04:41:56.971Z,8.00
2023-02-14T04:42:56.972Z,8.60
2023-02-14T04:43:56.984Z,10.10
2023-02-14T04:44:57.131Z,8.40
2023-02-14T04:45:56.858Z,8.90
2023-02-14T04:46:57.141Z,8.60
2023-02-14T04:47:57.147Z,11.30
2023-02-14T04:48:57.223Z,9.40
2023-02-14T04:49:57.421Z,8.70
2023-02-14T04:50:57.529Z,10.70
2023-02-14T04:51:57.249Z,8.50
2023-02-14T04:52:57.391Z,9.90
2023-02-14T04:53:56.834Z,9.60
2023-02-14T04:54:57.467Z,9.80
2023-02-14T04:55:57.067Z,10.30
2023-02-14T04:56:56.820Z,10.80
2023-02-14T04:57:57.025Z,9.50
2023-02-14T04:58:57.216Z,9.50
2023-02-14T04:59:56.886Z,10.70
2023-02-14T05:00:57.161Z,8.70
2023-02-14T05:01:56.860Z,8.60
2023-02-14T05:02:57.603Z,9.20
2023-02-14T05:03:56.843Z,8.60
2023-02-14T05:04:57.258Z,9.40
2023-02-14T05:05:57.564Z,8.30
2023-02-14T05:06:57.505Z,8.90
2023-02-14T05:07:56.733Z,8.30
2023-02-14T05:08:57.071Z,8.40
2023-02-14T05:09:56.883Z,9.10
2023-02-14T05:10:57.026Z,10.10
2023-02-14T05:11:57.105Z,9.90
2023-02-14T05:12:56.690Z,8.80
2023-02-14T05:13:56.709Z,9.10
2023-02-14T05:14:56.718Z,10.30
2023-02-14T05:15:56.726Z,8.90
2023-02-14T05:16:56.729Z,8.70
2023-02-14T05:17:56.720Z,8.10
2023-02-14T05:18:56.748Z,8.20
2023-02-14T05:19:56.752Z,8.60
2023-02-14T05:20:56.800Z,9.40
2023-02-14T05:21:56.757Z,8.10
2023-02-14T05:22:56.636Z,10.60
2023-02-14T05:23:56.768Z,10.90
2023-02-14T05:24:56.975Z,10.20
2023-02-14T05:25:56.991Z,9.40
2023-02-14T05:26:56.635Z,9.70
2023-02-14T05:27:56.796Z,11.60
2023-02-14T05:28:56.588Z,14.10
2023-02-14T05:29:57.127Z,11.90
2023-02-14T05:30:57.332Z,13.60
2023-02-14T05:31:56.715Z,13.30
2023-02-14T05:32:56.703Z,12.60
2023-02-14T05:33:56.843Z,11.40
2023-02-14T05:34:56.902Z,12.20
2023-02-14T05:35:56.554Z,11.00
2023-02-14T05:36:57.390Z,11.60
2023-02-14T05:37:56.552Z,11.10
2023-02-14T05:38:56.554Z,11.80
2023-02-14T05:39:56.510Z,12.20
2023-02-14T05:40:56.735Z,12.00
2023-02-14T05:41:59.037Z,12.00
2023-02-14T05:42:56.538Z,11.80
2023-02-14T05:43:56.579Z,13.70
2023-02-14T05:44:56.594Z,11.50
2023-02-14T05:45:56.568Z,10.80
2023-02-14T05:46:56.619Z,10.70
2023-02-14T05:47:56.529Z,11.70
2023-02-14T05:48:56.623Z,10.40
2023-02-14T05:49:56.619Z,12.20
2023-02-14T05:50:56.538Z,11.60
2023-02-14T05:51:56.604Z,11.70
2023-02-14T05:52:56.750Z,8.40
2023-02-14T05:53:56.438Z,8.90
2023-02-14T05:54:56.455Z,8.80
2023-02-14T05:55:56.466Z,10.80
2023-02-14T05:56:56.461Z,9.50
2023-02-14T05:57:56.474Z,9.30
2023-02-14T05:58:56.479Z,10.80
2023-02-14T05:59:56.599Z,10.90
2023-02-14T06:00:56.416Z,11.20
2023-02-14T06:01:56.523Z,11.00
2023-02-14T06:02:56.709Z,10.20
2023-02-14T06:03:56.726Z,10.10
2023-02-14T06:04:56.451Z,9.60
2023-02-14T06:05:56.430Z,10.30
2023-02-14T06:06:56.378Z,12.30
2023-02-14T06:07:56.859Z,8.90
2023-02-14T06:08:56.363Z,9.20
2023-02-14T06:09:56.358Z,9.60
2023-02-14T06:10:56.999Z,9.00
2023-02-14T06:11:56.990Z,9.70
2023-02-14T06:12:56.342Z,9.60
2023-02-14T06:13:56.317Z,8.80
2023-02-14T06:14:56.309Z,10.30
2023-02-14T06:15:56.404Z,10.90
2023-02-14T06:16:56.531Z,11.70
2023-02-14T06:17:56.560Z,8.30
2023-02-14T06:18:56.537Z,9.10
2023-02-14T06:19:56.636Z,9.30
2023-02-14T06:20:56.317Z,9.30
2023-02-14T06:21:56.258Z,10.00
2023-02-14T06:22:56.776Z,9.10
2023-02-14T06:23:56.775Z,8.20
2023-02-14T06:24:56.669Z,10.30
2023-02-14T06:25:56.409Z,9.40
2023-02-14T06:26:56.673Z,9.30
2023-02-14T06:27:56.271Z,9.00
2023-02-14T06:28:56.696Z,9.60
2023-02-14T06:29:56.251Z,9.20
2023-02-14T06:30:56.990Z,9.20
2023-02-14T06:31:57.230Z,10.30
2023-02-14T06:32:56.233Z,9.90
2023-02-14T06:33:56.225Z,8.40
2023-02-14T06:34:56.232Z,8.40
2023-02-14T06:35:56.333Z,10.30
2023-02-14T06:36:56.358Z,10.10
2023-02-14T06:37:56.235Z,10.40
2023-02-14T06:38:56.248Z,9.50
2023-02-14T06:39:56.158Z,8.80
2023-02-14T06:40:56.165Z,8.80
2023-02-14T06:41:56.167Z,9.60
2023-02-14T06:42:56.169Z,7.50
2023-02-14T06:43:56.179Z,11.50
2023-02-14T06:44:56.187Z,9.10
2023-02-14T06:45:56.249Z,11.40
2023-02-14T06:46:56.207Z,10.40
2023-02-14T06:47:56.107Z,8.70
2023-02-14T06:48:56.173Z,9.20
2023-02-14T06:49:56.219Z,9.00
2023-02-14T06:50:56.229Z,11.00
2023-02-14T06:51:56.236Z,9.20
2023-02-14T06:52:56.085Z,8.60
2023-02-14T06:53:56.136Z,9.30
2023-02-14T06:54:56.066Z,9.00
2023-02-14T06:55:56.283Z,9.90
2023-02-14T06:56:56.279Z,10.20
2023-02-14T06:57:56.076Z,10.60
2023-02-14T06:58:56.384Z,8.20
2023-02-14T06:59:56.093Z,36.20
2023-02-14T07:00:56.406Z,15.10
2023-02-14T07:01:56.397Z,10.90
2023-02-14T07:02:56.420Z,11.10
2023-02-14T07:03:56.115Z,13.30
2023-02-14T07:04:56.422Z,11.20
2023-02-14T07:05:56.429Z,10.80
2023-02-14T07:06:56.030Z,10.40
2023-02-14T07:07:55.969Z,10.70
2023-02-14T07:08:55.981Z,11.80
2023-02-14T07:09:55.987Z,11.60
2023-02-14T07:10:55.964Z,10.50
2023-02-14T07:11:55.930Z,11.60
2023-02-14T07:12:55.971Z,10.30
2023-02-14T07:13:55.977Z,13.50
2023-02-14T07:14:56.195Z,12.70
2023-02-14T07:15:56.352Z,14.20
2023-02-14T07:16:55.967Z,16.40
2023-02-14T07:17:55.918Z,14.10
2023-02-14T07:18:56.318Z,13.50
2023-02-14T07:19:56.444Z,12.30
2023-02-14T07:20:56.437Z,13.50
2023-02-14T07:21:56.058Z,13.30
2023-02-14T07:22:56.550Z,15.60
2023-02-14T07:23:56.559Z,13.20
2023-02-14T07:24:56.063Z,11.90
2023-02-14T07:25:56.681Z,13.00
2023-02-14T07:26:55.872Z,12.00
2023-02-14T07:27:55.865Z,12.10
2023-02-14T07:28:55.891Z,12.30
2023-02-14T07:29:55.906Z,13.50
2023-02-14T07:30:55.979Z,12.10
2023-02-14T07:31:56.795Z,13.60
2023-02-14T07:32:55.913Z,14.00
2023-02-14T07:33:55.903Z,12.00
2023-02-14T07:34:55.798Z,13.00
2023-02-14T07:35:55.794Z,14.10
2023-02-14T07:36:55.816Z,12.30
2023-02-14T07:37:56.025Z,13.40
2023-02-14T07:38:55.943Z,12.30
2023-02-14T07:39:55.950Z,13.30
2023-02-14T07:40:55.760Z,12.90
2023-02-14T07:41:55.858Z,12.60
2023-02-14T07:42:55.975Z,12.40
2023-02-14T07:43:55.881Z,12.30
2023-02-14T07:44:55.988Z,15.00
2023-02-14T07:45:56.064Z,13.70
2023-02-14T07:46:55.998Z,11.80
2023-02-14T07:47:55.807Z,11.50
2023-02-14T07:48:55.811Z,13.10
2023-02-14T07:49:55.728Z,11.10
2023-02-14T07:50:55.818Z,12.20
2023-02-14T07:51:55.737Z,11.80
2023-02-14T07:52:55.920Z,12.30
2023-02-14T07:53:55.686Z,12.60
2023-02-14T07:54:56.057Z,12.20
2023-02-14T07:55:55.687Z,13.50
2023-02-14T07:56:55.673Z,13.50
2023-02-14T07:57:55.865Z,13.70
2023-02-14T07:58:55.876Z,15.60
2023-02-14T07:59:56.184Z,14.10
2023-02-14T08:00:56.184Z,16.20
2023-02-14T08:01:55.778Z,16.20
2023-02-14T08:02:55.643Z,15.80
2023-02-14T08:03:56.113Z,15.90
2023-02-14T08:04:55.652Z,14.00
2023-02-14T08:05:55.593Z,16.00
2023-02-14T08:06:55.612Z,13.80
2023-02-14T08:07:55.622Z,15.50
2023-02-14T08:08:55.750Z,12.20
2023-02-14T08:09:55.764Z,12.00
2023-02-14T08:10:55.783Z,11.60
2023-02-14T08:11:55.849Z,10.90
2023-02-14T08:12:55.893Z,12.30
2023-02-14T08:13:55.968Z,11.90
2023-02-14T08:14:56.000Z,11.10
2023-02-14T08:15:56.030Z,10.20
2023-02-14T08:16:55.997Z,11.70
2023-02-14T08:17:56.086Z,10.20
2023-02-14T08:18:55.805Z,10.90
2023-02-14T08:19:55.883Z,10.20
2023-02-14T08:20:56.246Z,11.70
2023-02-14T08:21:55.523Z,11.90
2023-02-14T08:22:56.324Z,11.10
2023-02-14T08:23:55.906Z,11.70
2023-02-14T08:24:55.494Z,11.90
2023-02-14T08:25:55.520Z,11.10
2023-02-14T08:26:55.472Z,9.80
2023-02-14T08:27:55.472Z,11.90
2023-02-14T08:28:55.673Z,9.40
2023-02-14T08:29:55.491Z,12.40
2023-02-14T08:30:55.550Z,10.50
2023-02-14T08:31:55.601Z,11.80
2023-02-14T08:32:55.560Z,12.00
2023-02-14T08:33:55.572Z,10.70
2023-02-14T08:34:55.518Z,12.60
2023-02-14T08:35:55.549Z,10.00
2023-02-14T08:36:55.516Z,12.50
2023-02-14T08:37:55.532Z,11.30
2023-02-14T08:38:55.541Z,15.10
2023-02-14T08:39:55.537Z,12.30
2023-02-14T08:40:55.553Z,13.10
2023-02-14T08:41:55.366Z,13.00
2023-02-14T08:42:55.564Z,15.60
2023-02-14T08:43:55.573Z,13.00
2023-02-14T08:44:55.592Z,15.00
2023-02-14T08:45:55.586Z,13.30
2023-02-14T08:46:55.639Z,16.10
2023-02-14T08:47:55.610Z,13.60
2023-02-14T08:48:55.605Z,13.40
2023-02-14T08:49:55.615Z,11.70
2023-02-14T08:50:55.629Z,14.40
2023-02-14T08:51:55.625Z,13.40
2023-02-14T08:52:55.296Z,15.30
2023-02-14T08:53:55.297Z,13.40
2023-02-14T08:54:55.718Z,14.30
2023-02-14T08:55:55.732Z,12.70
2023-02-14T08:56:55.779Z,14.40
2023-02-14T08:57:55.469Z,11.80
2023-02-14T08:58:55.311Z,10.30
2023-02-14T08:59:55.301Z,11.10
2023-02-14T09:00:55.386Z,10.80
2023-02-14T09:01:55.312Z,9.10
2023-02-14T09:02:55.312Z,10.00
2023-02-14T09:03:55.342Z,9.40
2023-02-14T09:04:55.373Z,11.80
2023-02-14T09:05:55.552Z,12.40
2023-02-14T09:06:55.367Z,9.30
2023-02-14T09:07:55.620Z,8.20
2023-02-14T09:08:55.575Z,10.00
2023-02-14T09:09:55.574Z,11.20
2023-02-14T09:10:55.412Z,10.20
2023-02-14T09:11:55.569Z,11.20
2023-02-14T09:12:55.201Z,12.20
2023-02-14T09:13:55.843Z,12.00
2023-02-14T09:14:55.839Z,12.50
2023-02-14T09:15:55.501Z,12.90
2023-02-14T09:16:56.174Z,12.60
2023-02-14T09:17:56.058Z,13.20
2023-02-14T09:18:56.086Z,14.70
2023-02-14T09:19:55.444Z,16.30
2023-02-14T09:20:55.642Z,13.30
2023-02-14T09:21:55.660Z,14.50
2023-02-14T09:22:55.947Z,13.70
2023-02-14T09:23:55.277Z,12.80
2023-02-14T09:24:55.457Z,11.40
2023-02-14T09:25:55.456Z,12.30
2023-02-14T09:26:55.506Z,14.00
2023-02-14T09:27:55.517Z,12.80
2023-02-14T09:28:55.527Z,14.50
2023-02-14T09:29:55.551Z,13.10
2023-02-14T09:30:55.151Z,10.90
2023-02-14T09:31:55.832Z,16.30
2023-02-14T09:32:55.725Z,13.10
2023-02-14T09:33:55.516Z,13.10
2023-02-14T09:34:55.771Z,14.10
2023-02-14T09:35:55.118Z,14.60
2023-02-14T09:36:55.144Z,12.00
2023-02-14T09:37:55.145Z,14.50
2023-02-14T09:38:55.141Z,14.50
2023-02-14T09:39:55.006Z,12.90
2023-02-14T09:40:55.192Z,14.00
2023-02-14T09:41:55.364Z,11.50
2023-02-14T09:42:55.375Z,13.30
2023-02-14T09:43:54.973Z,15.10
2023-02-14T09:44:55.383Z,11.00
2023-02-14T09:45:55.230Z,12.40
2023-02-14T09:46:55.392Z,14.10
2023-02-14T09:47:55.619Z,13.80
2023-02-14T09:48:55.654Z,12.70
2023-02-14T09:49:55.280Z,12.70
2023-02-14T09:50:55.057Z,11.70
2023-02-14T09:51:55.478Z,12.90
2023-02-14T09:52:55.109Z,15.90
2023-02-14T09:53:54.972Z,12.20
2023-02-14T09:54:54.915Z,12.90
2023-02-14T09:55:54.918Z,11.50
2023-02-14T09:56:54.921Z,13.30
2023-02-14T09:57:54.923Z,11.80
2023-02-14T09:58:54.898Z,14.50
2023-02-14T09:59:54.894Z,15.90
2023-02-14T10:00:54.985Z,13.40
2023-02-14T10:01:54.919Z,14.00
2023-02-14T10:02:54.898Z,14.10
2023-02-14T10:03:54.904Z,19.70
2023-02-14T10:04:54.911Z,14.30
2023-02-14T10:05:54.923Z,17.30
2023-02-14T10:06:54.920Z,15.10
2023-02-14T10:07:54.929Z,14.40
2023-02-14T10:08:54.937Z,14.20
2023-02-14T10:09:54.809Z,12.00
2023-02-14T10:10:54.806Z,13.10
2023-02-14T10:11:54.787Z,15.70
2023-02-14T10:12:54.807Z,13.90
2023-02-14T10:13:54.975Z,12.20
2023-02-14T10:14:54.989Z,14.80
2023-02-14T10:15:54.756Z,13.20
2023-02-14T10:16:54.908Z,14.10
2023-02-14T10:17:55.006Z,14.30
2023-02-14T10:18:55.037Z,12.20
2023-02-14T10:19:55.226Z,14.00
2023-02-14T10:20:55.229Z,16.60
2023-02-14T10:21:55.255Z,14.10
2023-02-14T10:22:54.833Z,14.10
2023-02-14T10:23:55.040Z,14.30
2023-02-14T10:24:54.705Z,16.00
2023-02-14T10:25:55.281Z,14.10
2023-02-14T10:26:55.264Z,15.40
2023-02-14T10:27:55.277Z,14.10
2023-02-14T10:28:55.290Z,21.00
2023-02-14T10:29:55.091Z,28.10
2023-02-14T10:30:55.355Z,24.20
2023-02-14T10:31:54.996Z,22.30
2023-02-14T10:32:55.306Z,18.00
2023-02-14T10:33:57.526Z,16.20
2023-02-14T10:34:54.812Z,13.90
2023-02-14T10:35:54.702Z,14.00
2023-02-14T10:36:54.711Z,12.60
2023-02-14T10:37:55.341Z,13.80
2023-02-14T10:38:55.355Z,12.90
2023-02-14T10:39:55.151Z,11.70
2023-02-14T10:40:54.661Z,12.60
2023-02-14T10:41:55.373Z,13.60
2023-02-14T10:42:54.762Z,12.80
2023-02-14T10:43:54.776Z,13.70
2023-02-14T10:44:54.974Z,12.60
2023-02-14T10:45:55.209Z,14.40
2023-02-14T10:46:55.427Z,13.00
2023-02-14T10:47:54.797Z,14.30
2023-02-14T10:48:55.357Z,14.10
2023-02-14T10:49:54.604Z,15.10
2023-02-14T10:50:54.623Z,15.00
2023-02-14T10:51:54.624Z,14.20
2023-02-14T10:52:54.621Z,13.60
2023-02-14T10:53:54.840Z,13.50
2023-02-14T10:54:54.850Z,13.70
2023-02-14T10:55:54.854Z,12.50
2023-02-14T10:56:54.948Z,12.40
2023-02-14T10:57:54.501Z,12.50
2023-02-14T10:58:54.495Z,11.70
2023-02-14T10:59:54.498Z,12.50
2023-02-14T11:00:54.549Z,12.20
2023-02-14T11:01:54.493Z,13.30
2023-02-14T11:02:54.453Z,13.30
2023-02-14T11:03:54.761Z,11.30
2023-02-14T11:04:54.505Z,12.40
2023-02-14T11:05:54.720Z,11.50
2023-02-14T11:06:54.530Z,11.20
2023-02-14T11:07:54.533Z,11.90
2023-02-14T11:08:57.020Z,12.10
2023-02-14T11:09:54.754Z,10.50
2023-02-14T11:10:54.777Z,10.50
2023-02-14T11:11:54.529Z,10.80
2023-02-14T11:12:54.561Z,11.00
2023-02-14T11:13:54.789Z,12.40
2023-02-14T11:14:54.779Z,12.30
2023-02-14T11:15:54.799Z,12.70
2023-02-14T11:16:54.643Z,11.50
2023-02-14T11:17:54.387Z,11.70
2023-02-14T11:18:54.818Z,9.70
2023-02-14T11:19:54.818Z,13.50
2023-02-14T11:20:54.826Z,12.00
2023-02-14T11:21:54.837Z,11.70
2023-02-14T11:22:54.635Z,10.40
2023-02-14T11:23:54.856Z,11.90
2023-02-14T11:24:54.856Z,12.00
2023-02-14T11:25:54.466Z,10.80
2023-02-14T11:26:54.466Z,9.90
2023-02-14T11:27:54.466Z,10.50
2023-02-14T11:28:54.480Z,11.80
2023-02-14T11:29:54.349Z,11.30
2023-02-14T11:30:54.413Z,12.30
2023-02-14T11:31:54.756Z,13.30
2023-02-14T11:32:54.493Z,11.60
2023-02-14T11:33:54.280Z,12.70
2023-02-14T11:34:54.528Z,10.40
2023-02-14T11:35:54.733Z,11.20
2023-02-14T11:36:54.478Z,12.00
2023-02-14T11:37:54.948Z,10.70
2023-02-14T11:38:54.202Z,9.90
2023-02-14T11:39:54.765Z,9.60
2023-02-14T11:40:54.754Z,10.30
2023-02-14T11:41:55.133Z,12.20
2023-02-14T11:43:02.158Z,11.00
2023-02-14T11:43:54.195Z,10.60
2023-02-14T11:44:54.182Z,10.40
2023-02-14T11:45:55.016Z,10.90
2023-02-14T11:46:55.173Z,12.20
2023-02-14T11:47:54.802Z,10.60
2023-02-14T11:48:54.393Z,12.10
2023-02-14T11:49:55.031Z,9.60
2023-02-14T11:50:54.414Z,10.20
2023-02-14T11:51:55.243Z,11.80
2023-02-14T11:52:54.256Z,11.40
2023-02-14T11:53:54.122Z,11.10
2023-02-14T11:54:54.289Z,12.70
2023-02-14T11:55:54.302Z,9.80
2023-02-14T11:56:54.294Z,9.70
2023-02-14T11:57:54.304Z,9.40
2023-02-14T11:58:54.279Z,9.30
2023-02-14T11:59:54.276Z,10.70
2023-02-14T12:00:54.282Z,9.00
2023-02-14T12:01:54.065Z,10.40
2023-02-14T12:02:54.088Z,10.00
2023-02-14T12:03:54.104Z,11.40
2023-02-14T12:04:54.099Z,10.90
2023-02-14T12:05:54.102Z,11.00
2023-02-14T12:06:54.042Z,10.00
2023-02-14T12:07:54.337Z,11.70
2023-02-14T12:08:54.330Z,10.00
2023-02-14T12:09:54.354Z,10.10
2023-02-14T12:10:54.349Z,9.60
2023-02-14T12:11:54.201Z,11.30
2023-02-14T12:12:54.538Z,11.30
2023-02-14T12:13:54.585Z,11.80
2023-02-14T12:14:54.580Z,10.10
2023-02-14T12:15:54.205Z,9.40
2023-02-14T12:16:54.601Z,7.90
2023-02-14T12:17:53.985Z,11.20
2023-02-14T12:18:54.601Z,10.10
2023-02-14T12:19:54.611Z,8.00
2023-02-14T12:20:54.401Z,8.40
2023-02-14T12:21:54.621Z,7.80
2023-02-14T12:22:54.029Z,7.50
2023-02-14T12:23:54.222Z,9.90
2023-02-14T12:24:53.930Z,9.50
2023-02-14T12:25:53.902Z,10.40
2023-02-14T12:26:54.610Z,8.20
2023-02-14T12:27:54.250Z,8.50
2023-02-14T12:28:53.879Z,8.80
2023-02-14T12:29:54.692Z,9.60
2023-02-14T12:30:54.124Z,7.50
2023-02-14T12:31:54.357Z,6.50
2023-02-14T12:32:54.688Z,8.10
2023-02-14T12:33:54.697Z,7.40
2023-02-14T12:34:54.666Z,8.00
2023-02-14T12:35:54.094Z,7.90
2023-02-14T12:36:53.891Z,8.10
2023-02-14T12:38:03.905Z,7.50
2023-02-14T12:38:54.746Z,9.60
2023-02-14T12:39:53.803Z,8.30
2023-02-14T12:40:53.911Z,10.40
2023-02-14T12:41:53.932Z,7.90
2023-02-14T12:42:53.939Z,7.90
2023-02-14T12:43:53.946Z,9.30
2023-02-14T12:44:53.958Z,8.40
2023-02-14T12:45:53.960Z,8.90
2023-02-14T12:46:53.968Z,8.50
2023-02-14T12:47:53.778Z,7.90
2023-02-14T12:48:53.738Z,10.60
2023-02-14T12:49:53.792Z,8.50
2023-02-14T12:50:53.792Z,8.00
2023-02-14T12:51:53.803Z,8.30
2023-02-14T12:52:53.812Z,9.70
2023-02-14T12:53:53.744Z,7.10
2023-02-14T12:54:53.834Z,8.90
2023-02-14T12:55:54.042Z,8.60
2023-02-14T12:56:54.045Z,10.90
2023-02-14T12:57:54.064Z,10.80
2023-02-14T12:58:53.683Z,7.80